Kinder, Louisiana
Current Conditions -  °F | °C
As of 1:15 PM on Saturday 25 Oct 2014 (Local Time) from K3R7 Reporting Station
Clear Clear  
Wind Chill: 77°   Ceiling: Unl
Heat Index: 78°   Visibility: 10mi
Dew Point: 50°   Wind: 0mph
Humidity: 39%   Direction: NA
Pressure: 30.14"   Gusts: NA
Location:  30.49°N, 92.85°W
Report Text: K3R7 251815Z AUTO 00000KT 10SM CLR 25/10 A3014 RMK AO2 T02500102
Loading
Personal Weather Stations






























Interactive Weather Map
Tropical Storm Tracking
New forecast layout! Learn more

10-Day Weather Forecast

Advertisements
Track Severe Weather on mobile